sensor_id;sensor_type;location;lat;lon;timestamp;P1;durP1;ratioP1;P2;durP2;ratioP2
81273;SDS011;70753;47.908;11.274;2024-01-15T00:02:21;4.95;;;2.22;;
81273;SDS011;70753;47.908;11.274;2024-01-15T00:04:46;4.88;;;2.08;;
81273;SDS011;70753;47.908;11.274;2024-01-15T00:07:12;4.32;;;1.85;;
81273;SDS011;70753;47.908;11.274;2024-01-15T00:09:39;4.95;;;1.90;;
81273;SDS011;70753;47.908;11.274;2024-01-15T00:12:05;4.95;;;2.20;;
81273;SDS011;70753;47.908;11.274;2024-01-15T00:14:31;6.20;;;2.30;;
81273;SDS011;70753;47.908;11.274;2024-01-15T00:16:57;4.75;;;2.17;;
81273;SDS011;70753;47.908;11.274;2024-01-15T00:19:23;6.10;;;2.05;;
81273;SDS011;70753;47.908;11.274;2024-01-15T00:21:49;4.15;;;1.92;;
81273;SDS011;70753;47.908;11.274;2024-01-15T00:24:14;4.00;;;1.73;;
81273;SDS011;70753;47.908;11.274;2024-01-15T00:26:41;6.90;;;2.15;;
81273;SDS011;70753;47.908;11.274;2024-01-15T00:29:07;5.18;;;1.80;;
81273;SDS011;70753;47.908;11.274;2024-01-15T00:31:33;4.13;;;1.83;;
81273;SDS011;70753;47.908;11.274;2024-01-15T00:33:58;4.55;;;1.70;;
81273;SDS011;70753;47.908;11.274;2024-01-15T00:36:24;6.43;;;2.13;;
81273;SDS011;70753;47.908;11.274;2024-01-15T00:38:49;4.53;;;2.22;;
81273;SDS011;70753;47.908;11.274;2024-01-15T00:41:15;5.13;;;1.88;;
81273;SDS011;70753;47.908;11.274;2024-01-15T00:43:42;4.95;;;2.05;;
81273;SDS011;70753;47.908;11.274;2024-01-15T00:46:08;5.15;;;2.30;;
81273;SDS011;70753;47.908;11.274;2024-01-15T00:48:33;4.53;;;2.03;;
81273;SDS011;70753;47.908;11.274;2024-01-15T00:50:58;4.18;;;1.95;;
81273;SDS011;70753;47.908;11.274;2024-01-15T00:53:25;4.40;;;2.20;;
81273;SDS011;70753;47.908;11.274;2024-01-15T00:55:50;4.93;;;2.00;;
81273;SDS011;70753;47.908;11.274;2024-01-15T00:58:16;5.55;;;2.40;;
81273;SDS011;70753;47.908;11.274;2024-01-15T01:00:42;4.72;;;2.28;;
81273;SDS011;70753;47.908;11.274;2024-01-15T01:03:08;5.10;;;2.15;;
81273;SDS011;70753;47.908;11.274;2024-01-15T01:05:33;4.93;;;2.15;;
81273;SDS011;70753;47.908;11.274;2024-01-15T01:07:59;4.68;;;2.22;;
81273;SDS011;70753;47.908;11.274;2024-01-15T01:10:24;4.43;;;2.25;;
81273;SDS011;70753;47.908;11.274;2024-01-15T01:12:50;5.03;;;2.30;;
81273;SDS011;70753;47.908;11.274;2024-01-15T01:15:15;6.43;;;2.85;;
81273;SDS011;70753;47.908;11.274;2024-01-15T01:17:42;5.57;;;2.33;;
81273;SDS011;70753;47.908;11.274;2024-01-15T01:20:08;5.00;;;2.55;;
81273;SDS011;70753;47.908;11.274;2024-01-15T01:22:34;5.32;;;2.33;;
81273;SDS011;70753;47.908;11.274;2024-01-15T01:24:59;4.88;;;2.53;;
81273;SDS011;70753;47.908;11.274;2024-01-15T01:27:24;5.82;;;2.40;;
81273;SDS011;70753;47.908;11.274;2024-01-15T01:29:50;5.43;;;2.53;;
81273;SDS011;70753;47.908;11.274;2024-01-15T01:32:16;6.40;;;2.88;;
81273;SDS011;70753;47.908;11.274;2024-01-15T01:34:42;6.53;;;2.80;;
81273;SDS011;70753;47.908;11.274;2024-01-15T01:37:08;5.43;;;2.45;;
81273;SDS011;70753;47.908;11.274;2024-01-15T01:39:34;6.40;;;3.38;;
81273;SDS011;70753;47.908;11.274;2024-01-15T01:42:00;8.25;;;3.03;;
81273;SDS011;70753;47.908;11.274;2024-01-15T01:44:25;6.47;;;2.78;;
81273;SDS011;70753;47.908;11.274;2024-01-15T01:46:51;5.88;;;2.70;;
81273;SDS011;70753;47.908;11.274;2024-01-15T01:49:17;8.07;;;3.38;;
81273;SDS011;70753;47.908;11.274;2024-01-15T01:51:44;6.55;;;3.30;;
81273;SDS011;70753;47.908;11.274;2024-01-15T01:54:11;6.57;;;3.08;;
81273;SDS011;70753;47.908;11.274;2024-01-15T01:56:37;7.47;;;3.40;;
81273;SDS011;70753;47.908;11.274;2024-01-15T01:59:02;8.85;;;4.03;;
81273;SDS011;70753;47.908;11.274;2024-01-15T02:01:29;10.57;;;4.35;;
81273;SDS011;70753;47.908;11.274;2024-01-15T02:03:56;9.70;;;4.57;;
81273;SDS011;70753;47.908;11.274;2024-01-15T02:06:22;10.93;;;4.55;;
81273;SDS011;70753;47.908;11.274;2024-01-15T02:08:49;8.27;;;4.20;;
81273;SDS011;70753;47.908;11.274;2024-01-15T02:11:15;11.52;;;5.30;;
81273;SDS011;70753;47.908;11.274;2024-01-15T02:13:41;13.25;;;5.45;;
81273;SDS011;70753;47.908;11.274;2024-01-15T02:16:07;15.63;;;5.95;;
81273;SDS011;70753;47.908;11.274;2024-01-15T02:18:39;11.63;;;5.38;;
81273;SDS011;70753;47.908;11.274;2024-01-15T02:21:05;10.77;;;5.30;;
81273;SDS011;70753;47.908;11.274;2024-01-15T02:23:32;10.70;;;5.00;;
81273;SDS011;70753;47.908;11.274;2024-01-15T02:25:57;11.13;;;5.07;;
81273;SDS011;70753;47.908;11.274;2024-01-15T02:28:23;11.73;;;5.50;;
81273;SDS011;70753;47.908;11.274;2024-01-15T02:30:48;13.20;;;6.05;;
81273;SDS011;70753;47.908;11.274;2024-01-15T02:33:14;13.70;;;5.50;;
81273;SDS011;70753;47.908;11.274;2024-01-15T02:35:39;10.52;;;5.07;;
81273;SDS011;70753;47.908;11.274;2024-01-15T02:38:05;11.35;;;5.32;;
81273;SDS011;70753;47.908;11.274;2024-01-15T02:40:32;11.57;;;5.53;;
81273;SDS011;70753;47.908;11.274;2024-01-15T02:42:58;12.27;;;5.25;;
81273;SDS011;70753;47.908;11.274;2024-01-15T02:45:23;12.00;;;5.40;;
81273;SDS011;70753;47.908;11.274;2024-01-15T02:47:49;11.38;;;5.38;;
81273;SDS011;70753;47.908;11.274;2024-01-15T02:50:15;12.38;;;5.57;;
81273;SDS011;70753;47.908;11.274;2024-01-15T02:52:41;11.20;;;5.47;;
81273;SDS011;70753;47.908;11.274;2024-01-15T02:55:06;11.43;;;5.10;;
81273;SDS011;70753;47.908;11.274;2024-01-15T02:57:34;13.27;;;5.38;;
81273;SDS011;70753;47.908;11.274;2024-01-15T02:59:59;11.88;;;5.43;;
81273;SDS011;70753;47.908;11.274;2024-01-15T03:02:25;12.63;;;4.80;;
81273;SDS011;70753;47.908;11.274;2024-01-15T03:04:50;9.85;;;4.85;;
81273;SDS011;70753;47.908;11.274;2024-01-15T03:07:16;10.57;;;4.70;;
81273;SDS011;70753;47.908;11.274;2024-01-15T03:09:43;9.75;;;4.95;;
81273;SDS011;70753;47.908;11.274;2024-01-15T03:12:08;10.07;;;4.28;;
81273;SDS011;70753;47.908;11.274;2024-01-15T03:14:35;8.88;;;4.75;;
81273;SDS011;70753;47.908;11.274;2024-01-15T03:17:01;10.75;;;4.35;;
81273;SDS011;70753;47.908;11.274;2024-01-15T03:19:26;9.93;;;4.75;;
81273;SDS011;70753;47.908;11.274;2024-01-15T03:21:52;12.10;;;4.80;;
81273;SDS011;70753;47.908;11.274;2024-01-15T03:24:17;9.98;;;4.20;;
81273;SDS011;70753;47.908;11.274;2024-01-15T03:26:43;9.90;;;4.55;;
81273;SDS011;70753;47.908;11.274;2024-01-15T03:29:08;10.10;;;4.18;;
81273;SDS011;70753;47.908;11.274;2024-01-15T03:31:35;8.68;;;3.88;;
81273;SDS011;70753;47.908;11.274;2024-01-15T03:34:00;11.00;;;4.07;;
81273;SDS011;70753;47.908;11.274;2024-01-15T03:36:26;7.63;;;3.20;;
81273;SDS011;70753;47.908;11.274;2024-01-15T03:38:52;8.07;;;4.13;;
81273;SDS011;70753;47.908;11.274;2024-01-15T03:41:17;7.35;;;3.20;;
81273;SDS011;70753;47.908;11.274;2024-01-15T03:43:43;9.60;;;3.25;;
81273;SDS011;70753;47.908;11.274;2024-01-15T03:46:08;7.82;;;3.53;;
81273;SDS011;70753;47.908;11.274;2024-01-15T03:48:35;8.45;;;3.38;;
81273;SDS011;70753;47.908;11.274;2024-01-15T03:51:02;6.90;;;3.00;;
81273;SDS011;70753;47.908;11.274;2024-01-15T03:53:28;9.48;;;3.83;;
81273;SDS011;70753;47.908;11.274;2024-01-15T03:55:53;8.68;;;3.50;;
81273;SDS011;70753;47.908;11.274;2024-01-15T03:58:18;8.07;;;3.40;;
81273;SDS011;70753;47.908;11.274;2024-01-15T04:00:45;7.05;;;3.30;;
81273;SDS011;70753;47.908;11.274;2024-01-15T04:03:11;6.32;;;3.00;;
81273;SDS011;70753;47.908;11.274;2024-01-15T04:05:38;9.57;;;3.17;;
81273;SDS011;70753;47.908;11.274;2024-01-15T04:08:03;7.85;;;3.05;;
81273;SDS011;70753;47.908;11.274;2024-01-15T04:10:30;9.52;;;3.83;;
81273;SDS011;70753;47.908;11.274;2024-01-15T04:12:56;8.88;;;3.80;;
81273;SDS011;70753;47.908;11.274;2024-01-15T04:15:21;7.15;;;3.05;;
81273;SDS011;70753;47.908;11.274;2024-01-15T04:17:47;6.53;;;2.70;;
81273;SDS011;70753;47.908;11.274;2024-01-15T04:20:12;8.13;;;3.00;;
81273;SDS011;70753;47.908;11.274;2024-01-15T04:22:39;6.53;;;3.13;;
81273;SDS011;70753;47.908;11.274;2024-01-15T04:25:05;7.32;;;3.40;;
81273;SDS011;70753;47.908;11.274;2024-01-15T04:27:31;7.97;;;3.28;;
81273;SDS011;70753;47.908;11.274;2024-01-15T04:29:56;7.00;;;2.90;;
81273;SDS011;70753;47.908;11.274;2024-01-15T04:32:21;7.38;;;3.50;;
81273;SDS011;70753;47.908;11.274;2024-01-15T04:34:48;6.13;;;2.90;;
81273;SDS011;70753;47.908;11.274;2024-01-15T04:37:13;7.10;;;3.03;;
81273;SDS011;70753;47.908;11.274;2024-01-15T04:39:40;7.60;;;2.88;;
81273;SDS011;70753;47.908;11.274;2024-01-15T04:42:05;6.10;;;2.63;;
81273;SDS011;70753;47.908;11.274;2024-01-15T04:44:31;6.97;;;3.03;;
81273;SDS011;70753;47.908;11.274;2024-01-15T04:46:56;7.13;;;3.03;;
81273;SDS011;70753;47.908;11.274;2024-01-15T04:49:22;8.27;;;3.10;;
81273;SDS011;70753;47.908;11.274;2024-01-15T04:51:47;7.68;;;3.00;;
81273;SDS011;70753;47.908;11.274;2024-01-15T04:54:13;7.93;;;3.13;;
81273;SDS011;70753;47.908;11.274;2024-01-15T04:56:39;8.18;;;3.55;;
81273;SDS011;70753;47.908;11.274;2024-01-15T04:59:05;6.57;;;3.13;;
81273;SDS011;70753;47.908;11.274;2024-01-15T05:01:30;8.13;;;3.00;;
81273;SDS011;70753;47.908;11.274;2024-01-15T05:03:57;8.27;;;3.47;;
81273;SDS011;70753;47.908;11.274;2024-01-15T05:06:22;6.38;;;3.13;;
81273;SDS011;70753;47.908;11.274;2024-01-15T05:08:48;7.97;;;3.05;;
81273;SDS011;70753;47.908;11.274;2024-01-15T05:11:14;6.68;;;3.83;;
81273;SDS011;70753;47.908;11.274;2024-01-15T05:13:40;6.78;;;2.85;;
81273;SDS011;70753;47.908;11.274;2024-01-15T05:16:06;8.35;;;3.20;;
81273;SDS011;70753;47.908;11.274;2024-01-15T05:18:31;7.97;;;2.95;;
81273;SDS011;70753;47.908;11.274;2024-01-15T05:20:57;7.00;;;2.90;;
81273;SDS011;70753;47.908;11.274;2024-01-15T05:23:23;6.65;;;2.95;;
81273;SDS011;70753;47.908;11.274;2024-01-15T05:25:48;6.63;;;2.50;;
81273;SDS011;70753;47.908;11.274;2024-01-15T05:28:14;8.13;;;2.50;;
81273;SDS011;70753;47.908;11.274;2024-01-15T05:30:41;7.65;;;2.90;;
81273;SDS011;70753;47.908;11.274;2024-01-15T05:33:07;6.32;;;2.90;;
81273;SDS011;70753;47.908;11.274;2024-01-15T05:35:32;6.43;;;2.90;;
81273;SDS011;70753;47.908;11.274;2024-01-15T05:37:57;7.65;;;3.33;;
81273;SDS011;70753;47.908;11.274;2024-01-15T05:40:23;6.35;;;2.92;;
81273;SDS011;70753;47.908;11.274;2024-01-15T05:42:48;7.30;;;2.85;;
81273;SDS011;70753;47.908;11.274;2024-01-15T05:45:14;7.15;;;3.10;;
81273;SDS011;70753;47.908;11.274;2024-01-15T05:47:41;6.28;;;2.47;;
81273;SDS011;70753;47.908;11.274;2024-01-15T05:50:06;6.85;;;3.10;;
81273;SDS011;70753;47.908;11.274;2024-01-15T05:52:32;7.57;;;2.85;;
81273;SDS011;70753;47.908;11.274;2024-01-15T05:54:57;6.53;;;2.70;;
81273;SDS011;70753;47.908;11.274;2024-01-15T05:57:23;7.07;;;2.70;;
81273;SDS011;70753;47.908;11.274;2024-01-15T05:59:49;7.93;;;3.58;;
81273;SDS011;70753;47.908;11.274;2024-01-15T06:02:14;6.75;;;3.15;;
81273;SDS011;70753;47.908;11.274;2024-01-15T06:04:41;6.47;;;2.75;;
81273;SDS011;70753;47.908;11.274;2024-01-15T06:07:07;7.38;;;3.35;;
81273;SDS011;70753;47.908;11.274;2024-01-15T06:09:32;8.32;;;2.85;;
81273;SDS011;70753;47.908;11.274;2024-01-15T06:11:58;6.68;;;2.97;;
81273;SDS011;70753;47.908;11.274;2024-01-15T06:14:23;7.32;;;3.13;;
81273;SDS011;70753;47.908;11.274;2024-01-15T06:16:48;7.03;;;3.00;;
81273;SDS011;70753;47.908;11.274;2024-01-15T06:19:15;6.65;;;2.65;;
81273;SDS011;70753;47.908;11.274;2024-01-15T06:21:42;6.35;;;2.90;;
81273;SDS011;70753;47.908;11.274;2024-01-15T06:24:07;7.25;;;2.60;;
81273;SDS011;70753;47.908;11.274;2024-01-15T06:26:33;8.32;;;2.80;;
81273;SDS011;70753;47.908;11.274;2024-01-15T06:28:58;7.22;;;3.13;;
81273;SDS011;70753;47.908;11.274;2024-01-15T06:31:24;8.50;;;3.00;;
81273;SDS011;70753;47.908;11.274;2024-01-15T06:33:49;7.00;;;3.03;;
81273;SDS011;70753;47.908;11.274;2024-01-15T06:36:14;6.13;;;2.72;;
81273;SDS011;70753;47.908;11.274;2024-01-15T06:38:42;7.57;;;3.00;;
81273;SDS011;70753;47.908;11.274;2024-01-15T06:41:08;7.47;;;2.65;;
81273;SDS011;70753;47.908;11.274;2024-01-15T06:43:33;6.40;;;2.97;;
81273;SDS011;70753;47.908;11.274;2024-01-15T06:45:59;7.25;;;3.05;;
81273;SDS011;70753;47.908;11.274;2024-01-15T06:48:24;6.75;;;2.75;;
81273;SDS011;70753;47.908;11.274;2024-01-15T06:50:50;4.63;;;2.20;;
81273;SDS011;70753;47.908;11.274;2024-01-15T06:53:16;7.82;;;2.88;;
81273;SDS011;70753;47.908;11.274;2024-01-15T06:55:43;6.18;;;2.45;;
81273;SDS011;70753;47.908;11.274;2024-01-15T06:58:08;6.07;;;2.70;;
81273;SDS011;70753;47.908;11.274;2024-01-15T07:00:33;6.72;;;2.83;;
81273;SDS011;70753;47.908;11.274;2024-01-15T07:02:59;6.03;;;2.88;;
81273;SDS011;70753;47.908;11.274;2024-01-15T07:05:25;7.82;;;3.17;;
81273;SDS011;70753;47.908;11.274;2024-01-15T07:07:50;6.05;;;2.75;;
81273;SDS011;70753;47.908;11.274;2024-01-15T07:10:16;5.50;;;2.55;;
81273;SDS011;70753;47.908;11.274;2024-01-15T07:12:43;7.10;;;3.00;;
81273;SDS011;70753;47.908;11.274;2024-01-15T07:15:09;7.93;;;2.50;;
81273;SDS011;70753;47.908;11.274;2024-01-15T07:17:35;7.50;;;2.58;;
81273;SDS011;70753;47.908;11.274;2024-01-15T07:20:00;6.65;;;3.08;;
81273;SDS011;70753;47.908;11.274;2024-01-15T07:22:26;7.22;;;2.80;;
81273;SDS011;70753;47.908;11.274;2024-01-15T07:24:52;6.85;;;2.75;;
81273;SDS011;70753;47.908;11.274;2024-01-15T07:27:17;7.30;;;3.35;;
81273;SDS011;70753;47.908;11.274;2024-01-15T07:29:44;6.93;;;2.90;;
81273;SDS011;70753;47.908;11.274;2024-01-15T07:32:10;7.88;;;3.17;;
81273;SDS011;70753;47.908;11.274;2024-01-15T07:34:35;6.53;;;3.13;;
81273;SDS011;70753;47.908;11.274;2024-01-15T07:37:01;6.72;;;2.90;;
81273;SDS011;70753;47.908;11.274;2024-01-15T07:39:26;5.90;;;2.83;;
81273;SDS011;70753;47.908;11.274;2024-01-15T07:41:51;7.82;;;3.17;;
81273;SDS011;70753;47.908;11.274;2024-01-15T07:44:17;7.95;;;3.55;;
81273;SDS011;70753;47.908;11.274;2024-01-15T07:46:45;6.30;;;2.60;;
81273;SDS011;70753;47.908;11.274;2024-01-15T07:49:11;6.90;;;3.10;;
81273;SDS011;70753;47.908;11.274;2024-01-15T07:51:36;6.55;;;3.20;;
81273;SDS011;70753;47.908;11.274;2024-01-15T07:54:03;7.55;;;3.42;;
81273;SDS011;70753;47.908;11.274;2024-01-15T07:56:28;6.43;;;2.55;;
81273;SDS011;70753;47.908;11.274;2024-01-15T07:58:53;6.90;;;2.88;;
81273;SDS011;70753;47.908;11.274;2024-01-15T08:01:19;6.15;;;2.80;;
81273;SDS011;70753;47.908;11.274;2024-01-15T08:03:46;7.25;;;3.40;;
81273;SDS011;70753;47.908;11.274;2024-01-15T08:06:11;7.38;;;2.70;;
81273;SDS011;70753;47.908;11.274;2024-01-15T08:08:37;6.55;;;2.95;;
81273;SDS011;70753;47.908;11.274;2024-01-15T08:11:02;7.55;;;2.90;;
81273;SDS011;70753;47.908;11.274;2024-01-15T08:13:28;7.10;;;2.92;;
81273;SDS011;70753;47.908;11.274;2024-01-15T08:15:53;7.25;;;3.00;;
81273;SDS011;70753;47.908;11.274;2024-01-15T08:18:19;6.88;;;2.67;;
81273;SDS011;70753;47.908;11.274;2024-01-15T08:20:46;5.47;;;2.85;;
81273;SDS011;70753;47.908;11.274;2024-01-15T08:23:11;6.13;;;2.83;;
81273;SDS011;70753;47.908;11.274;2024-01-15T08:25:37;6.97;;;2.90;;
81273;SDS011;70753;47.908;11.274;2024-01-15T08:28:02;6.30;;;2.80;;
81273;SDS011;70753;47.908;11.274;2024-01-15T08:30:28;7.93;;;3.50;;
81273;SDS011;70753;47.908;11.274;2024-01-15T08:32:53;6.43;;;2.78;;
81273;SDS011;70753;47.908;11.274;2024-01-15T08:35:19;6.88;;;2.85;;
81273;SDS011;70753;47.908;11.274;2024-01-15T08:37:46;6.20;;;2.70;;
81273;SDS011;70753;47.908;11.274;2024-01-15T08:40:11;8.27;;;3.35;;
81273;SDS011;70753;47.908;11.274;2024-01-15T08:42:37;7.18;;;3.15;;
81273;SDS011;70753;47.908;11.274;2024-01-15T08:45:02;7.68;;;3.15;;
81273;SDS011;70753;47.908;11.274;2024-01-15T08:47:28;6.80;;;3.25;;
81273;SDS011;70753;47.908;11.274;2024-01-15T08:49:53;6.88;;;3.00;;
81273;SDS011;70753;47.908;11.274;2024-01-15T08:52:19;7.40;;;3.17;;
81273;SDS011;70753;47.908;11.274;2024-01-15T08:54:45;7.93;;;3.83;;
81273;SDS011;70753;47.908;11.274;2024-01-15T08:57:12;8.07;;;3.28;;
81273;SDS011;70753;47.908;11.274;2024-01-15T08:59:37;6.57;;;2.75;;
81273;SDS011;70753;47.908;11.274;2024-01-15T09:02:02;8.68;;;3.15;;
81273;SDS011;70753;47.908;11.274;2024-01-15T09:04:28;7.03;;;2.95;;
81273;SDS011;70753;47.908;11.274;2024-01-15T09:06:53;7.93;;;3.67;;
81273;SDS011;70753;47.908;11.274;2024-01-15T09:09:19;6.85;;;3.08;;
81273;SDS011;70753;47.908;11.274;2024-01-15T09:11:46;8.15;;;3.20;;
81273;SDS011;70753;47.908;11.274;2024-01-15T09:14:11;7.75;;;3.33;;
81273;SDS011;70753;47.908;11.274;2024-01-15T09:16:37;7.72;;;3.70;;
81273;SDS011;70753;47.908;11.274;2024-01-15T09:19:02;7.90;;;3.35;;
81273;SDS011;70753;47.908;11.274;2024-01-15T09:21:28;7.22;;;3.67;;
81273;SDS011;70753;47.908;11.274;2024-01-15T09:23:53;6.90;;;3.40;;
81273;SDS011;70753;47.908;11.274;2024-01-15T09:26:18;7.80;;;3.58;;
81273;SDS011;70753;47.908;11.274;2024-01-15T09:28:45;6.97;;;3.10;;
81273;SDS011;70753;47.908;11.274;2024-01-15T09:31:10;6.70;;;3.42;;
81273;SDS011;70753;47.908;11.274;2024-01-15T09:33:36;6.53;;;2.33;;
81273;SDS011;70753;47.908;11.274;2024-01-15T09:36:01;8.23;;;3.20;;
81273;SDS011;70753;47.908;11.274;2024-01-15T09:38:27;5.75;;;2.28;;
81273;SDS011;70753;47.908;11.274;2024-01-15T09:40:53;5.07;;;2.15;;
81273;SDS011;70753;47.908;11.274;2024-01-15T09:43:18;6.38;;;2.40;;
81273;SDS011;70753;47.908;11.274;2024-01-15T09:45:46;5.65;;;2.40;;
81273;SDS011;70753;47.908;11.274;2024-01-15T09:48:11;6.63;;;2.67;;
81273;SDS011;70753;47.908;11.274;2024-01-15T09:50:37;4.93;;;2.40;;
81273;SDS011;70753;47.908;11.274;2024-01-15T09:53:02;5.95;;;2.30;;
81273;SDS011;70753;47.908;11.274;2024-01-15T09:55:28;5.00;;;1.90;;
81273;SDS011;70753;47.908;11.274;2024-01-15T09:57:54;5.43;;;1.83;;
81273;SDS011;70753;47.908;11.274;2024-01-15T10:00:21;4.70;;;2.22;;
81273;SDS011;70753;47.908;11.274;2024-01-15T10:02:49;4.97;;;2.25;;
81273;SDS011;70753;47.908;11.274;2024-01-15T10:05:15;6.30;;;2.20;;
81273;SDS011;70753;47.908;11.274;2024-01-15T10:07:41;4.90;;;1.83;;
81273;SDS011;70753;47.908;11.274;2024-01-15T10:10:07;4.72;;;2.25;;
81273;SDS011;70753;47.908;11.274;2024-01-15T10:12:33;5.22;;;1.80;;
81273;SDS011;70753;47.908;11.274;2024-01-15T10:15:00;3.88;;;1.80;;
81273;SDS011;70753;47.908;11.274;2024-01-15T10:17:26;4.22;;;2.03;;
81273;SDS011;70753;47.908;11.274;2024-01-15T10:19:53;4.47;;;1.80;;
81273;SDS011;70753;47.908;11.274;2024-01-15T10:22:18;4.57;;;2.20;;
81273;SDS011;70753;47.908;11.274;2024-01-15T10:24:44;4.28;;;1.90;;
81273;SDS011;70753;47.908;11.274;2024-01-15T10:27:10;4.03;;;1.77;;
81273;SDS011;70753;47.908;11.274;2024-01-15T10:29:37;5.15;;;2.15;;
81273;SDS011;70753;47.908;11.274;2024-01-15T10:32:03;5.70;;;2.05;;
81273;SDS011;70753;47.908;11.274;2024-01-15T10:34:31;4.47;;;2.10;;
81273;SDS011;70753;47.908;11.274;2024-01-15T10:36:58;5.32;;;2.33;;
81273;SDS011;70753;47.908;11.274;2024-01-15T10:39:24;6.25;;;2.20;;
81273;SDS011;70753;47.908;11.274;2024-01-15T10:41:49;7.15;;;2.70;;
81273;SDS011;70753;47.908;11.274;2024-01-15T10:44:15;5.63;;;2.35;;
81273;SDS011;70753;47.908;11.274;2024-01-15T10:46:41;5.63;;;2.42;;
81273;SDS011;70753;47.908;11.274;2024-01-15T10:49:08;7.30;;;2.92;;
81273;SDS011;70753;47.908;11.274;2024-01-15T10:51:34;5.90;;;2.28;;
81273;SDS011;70753;47.908;11.274;2024-01-15T10:54:01;6.25;;;2.47;;
81273;SDS011;70753;47.908;11.274;2024-01-15T10:56:27;5.63;;;2.42;;
81273;SDS011;70753;47.908;11.274;2024-01-15T10:58:52;5.53;;;2.53;;
81273;SDS011;70753;47.908;11.274;2024-01-15T11:01:19;6.85;;;2.88;;
81273;SDS011;70753;47.908;11.274;2024-01-15T11:03:45;5.85;;;2.47;;
81273;SDS011;70753;47.908;11.274;2024-01-15T11:06:16;6.10;;;2.42;;
81273;SDS011;70753;47.908;11.274;2024-01-15T11:08:42;7.53;;;2.80;;
81273;SDS011;70753;47.908;11.274;2024-01-15T11:11:09;4.50;;;1.77;;
81273;SDS011;70753;47.908;11.274;2024-01-15T11:13:40;5.47;;;2.10;;
81273;SDS011;70753;47.908;11.274;2024-01-15T11:16:06;4.95;;;2.20;;
81273;SDS011;70753;47.908;11.274;2024-01-15T11:18:34;5.40;;;2.50;;
81273;SDS011;70753;47.908;11.274;2024-01-15T11:21:20;6.95;;;2.53;;
81273;SDS011;70753;47.908;11.274;2024-01-15T11:23:49;7.22;;;2.60;;
81273;SDS011;70753;47.908;11.274;2024-01-15T11:26:37;6.72;;;2.10;;
81273;SDS011;70753;47.908;11.274;2024-01-15T11:29:10;4.05;;;1.73;;
81273;SDS011;70753;47.908;11.274;2024-01-15T11:31:57;3.90;;;1.65;;
81273;SDS011;70753;47.908;11.274;2024-01-15T11:37:04;4.25;;;1.35;;
81273;SDS011;70753;47.908;11.274;2024-01-15T11:39:39;4.78;;;1.50;;
81273;SDS011;70753;47.908;11.274;2024-01-15T11:42:06;2.85;;;1.10;;
81273;SDS011;70753;47.908;11.274;2024-01-15T11:44:31;3.47;;;1.52;;
81273;SDS011;70753;47.908;11.274;2024-01-15T11:46:58;3.50;;;1.50;;
81273;SDS011;70753;47.908;11.274;2024-01-15T11:49:26;3.95;;;1.52;;
81273;SDS011;70753;47.908;11.274;2024-01-15T11:52:11;3.45;;;1.50;;
81273;SDS011;70753;47.908;11.274;2024-01-15T11:54:37;3.75;;;1.85;;
81273;SDS011;70753;47.908;11.274;2024-01-15T11:57:08;3.47;;;1.63;;
81273;SDS011;70753;47.908;11.274;2024-01-15T11:59:39;5.63;;;1.77;;
81273;SDS011;70753;47.908;11.274;2024-01-15T12:02:06;4.13;;;1.83;;
81273;SDS011;70753;47.908;11.274;2024-01-15T12:04:32;4.03;;;1.70;;
81273;SDS011;70753;47.908;11.274;2024-01-15T12:06:57;4.10;;;2.00;;
81273;SDS011;70753;47.908;11.274;2024-01-15T12:09:23;4.40;;;1.83;;
81273;SDS011;70753;47.908;11.274;2024-01-15T12:11:50;3.60;;;1.67;;
81273;SDS011;70753;47.908;11.274;2024-01-15T12:14:20;5.13;;;1.88;;
81273;SDS011;70753;47.908;11.274;2024-01-15T12:16:46;3.78;;;1.95;;
81273;SDS011;70753;47.908;11.274;2024-01-15T12:19:13;3.80;;;1.90;;
81273;SDS011;70753;47.908;11.274;2024-01-15T12:21:39;4.78;;;2.00;;
81273;SDS011;70753;47.908;11.274;2024-01-15T12:24:06;5.47;;;2.00;;
81273;SDS011;70753;47.908;11.274;2024-01-15T12:26:32;4.20;;;2.13;;
81273;SDS011;70753;47.908;11.274;2024-01-15T12:28:57;6.63;;;2.35;;
81273;SDS011;70753;47.908;11.274;2024-01-15T12:31:28;5.53;;;2.10;;
81273;SDS011;70753;47.908;11.274;2024-01-15T12:33:55;4.95;;;2.15;;
81273;SDS011;70753;47.908;11.274;2024-01-15T12:36:21;4.60;;;2.13;;
81273;SDS011;70753;47.908;11.274;2024-01-15T12:38:46;5.22;;;2.00;;
81273;SDS011;70753;47.908;11.274;2024-01-15T12:41:11;4.53;;;2.38;;
81273;SDS011;70753;47.908;11.274;2024-01-15T12:43:37;4.78;;;1.75;;
81273;SDS011;70753;47.908;11.274;2024-01-15T12:46:03;6.43;;;2.17;;
81273;SDS011;70753;47.908;11.274;2024-01-15T12:48:30;4.70;;;1.73;;
81273;SDS011;70753;47.908;11.274;2024-01-15T12:50:55;5.03;;;1.88;;
81273;SDS011;70753;47.908;11.274;2024-01-15T12:53:21;4.10;;;1.70;;
81273;SDS011;70753;47.908;11.274;2024-01-15T12:55:47;5.35;;;1.85;;
81273;SDS011;70753;47.908;11.274;2024-01-15T12:58:12;4.68;;;2.10;;
81273;SDS011;70753;47.908;11.274;2024-01-15T13:00:38;5.13;;;2.22;;
81273;SDS011;70753;47.908;11.274;2024-01-15T13:03:03;4.03;;;1.70;;
81273;SDS011;70753;47.908;11.274;2024-01-15T13:05:30;4.65;;;1.88;;
81273;SDS011;70753;47.908;11.274;2024-01-15T13:07:57;5.35;;;2.00;;
81273;SDS011;70753;47.908;11.274;2024-01-15T13:10:23;4.10;;;1.80;;
81273;SDS011;70753;47.908;11.274;2024-01-15T13:12:48;5.05;;;1.65;;
81273;SDS011;70753;47.908;11.274;2024-01-15T13:15:14;3.88;;;1.58;;
81273;SDS011;70753;47.908;11.274;2024-01-15T13:17:40;6.15;;;2.10;;
81273;SDS011;70753;47.908;11.274;2024-01-15T13:20:06;4.25;;;2.08;;
81273;SDS011;70753;47.908;11.274;2024-01-15T13:22:34;4.60;;;1.83;;
81273;SDS011;70753;47.908;11.274;2024-01-15T13:24:59;3.95;;;1.60;;
81273;SDS011;70753;47.908;11.274;2024-01-15T13:27:25;4.07;;;1.77;;
81273;SDS011;70753;47.908;11.274;2024-01-15T13:29:50;4.47;;;1.77;;
81273;SDS011;70753;47.908;11.274;2024-01-15T13:32:17;4.32;;;1.60;;
81273;SDS011;70753;47.908;11.274;2024-01-15T13:34:48;3.72;;;1.20;;
81273;SDS011;70753;47.908;11.274;2024-01-15T13:37:14;3.50;;;1.45;;
81273;SDS011;70753;47.908;11.274;2024-01-15T13:39:42;2.33;;;1.27;;
81273;SDS011;70753;47.908;11.274;2024-01-15T13:42:07;3.30;;;1.48;;
81273;SDS011;70753;47.908;11.274;2024-01-15T13:44:32;2.72;;;1.10;;
81273;SDS011;70753;47.908;11.274;2024-01-15T13:46:58;4.93;;;1.33;;
81273;SDS011;70753;47.908;11.274;2024-01-15T13:49:23;1.98;;;1.00;;
81273;SDS011;70753;47.908;11.274;2024-01-15T13:51:49;2.13;;;1.10;;
81273;SDS011;70753;47.908;11.274;2024-01-15T13:54:14;2.92;;;1.30;;
81273;SDS011;70753;47.908;11.274;2024-01-15T13:56:41;3.47;;;1.42;;
81273;SDS011;70753;47.908;11.274;2024-01-15T13:59:06;3.58;;;1.17;;
81273;SDS011;70753;47.908;11.274;2024-01-15T14:01:32;2.97;;;1.65;;
81273;SDS011;70753;47.908;11.274;2024-01-15T14:03:58;2.13;;;1.10;;
81273;SDS011;70753;47.908;11.274;2024-01-15T14:06:23;2.58;;;1.15;;
81273;SDS011;70753;47.908;11.274;2024-01-15T14:08:49;2.22;;;1.13;;
81273;SDS011;70753;47.908;11.274;2024-01-15T14:11:14;4.00;;;1.60;;
81273;SDS011;70753;47.908;11.274;2024-01-15T14:13:41;3.22;;;1.23;;
81273;SDS011;70753;47.908;11.274;2024-01-15T14:16:06;2.70;;;1.40;;
81273;SDS011;70753;47.908;11.274;2024-01-15T14:18:32;3.45;;;1.20;;
81273;SDS011;70753;47.908;11.274;2024-01-15T14:20:57;4.05;;;1.42;;
81273;SDS011;70753;47.908;11.274;2024-01-15T14:23:23;3.15;;;1.48;;
81273;SDS011;70753;47.908;11.274;2024-01-15T14:25:48;3.72;;;1.40;;
81273;SDS011;70753;47.908;11.274;2024-01-15T14:28:13;5.22;;;1.55;;
81273;SDS011;70753;47.908;11.274;2024-01-15T14:30:40;3.42;;;1.38;;